sensor_id;sensor_type;location;lat;lon;timestamp;pressure;altitude;pressure_sealevel;temperature;humidity
35910;BME280;22004;49.120;-0.200;2023-05-08T00:01:22;102093.16;;;14.63;77.93
35910;BME280;22004;49.120;-0.200;2023-05-08T00:03:47;102090.78;;;14.60;77.96
35910;BME280;22004;49.120;-0.200;2023-05-08T00:06:12;102090.41;;;14.71;77.45
35910;BME280;22004;49.120;-0.200;2023-05-08T00:08:38;102086.53;;;14.66;77.71
35910;BME280;22004;49.120;-0.200;2023-05-08T00:11:03;102087.75;;;14.63;77.74
35910;BME280;22004;49.120;-0.200;2023-05-08T00:13:29;102091.44;;;14.70;77.53
35910;BME280;22004;49.120;-0.200;2023-05-08T00:15:54;102090.41;;;14.71;77.38
35910;BME280;22004;49.120;-0.200;2023-05-08T00:18:20;102085.19;;;14.62;77.80
35910;BME280;22004;49.120;-0.200;2023-05-08T00:20:45;102085.44;;;14.52;77.87
35910;BME280;22004;49.120;-0.200;2023-05-08T00:23:10;102086.94;;;14.55;78.17
35910;BME280;22004;49.120;-0.200;2023-05-08T00:25:36;102086.22;;;14.61;77.71
35910;BME280;22004;49.120;-0.200;2023-05-08T00:28:01;102076.84;;;14.32;78.89
35910;BME280;22004;49.120;-0.200;2023-05-08T00:30:27;102070.22;;;14.43;77.30
35910;BME280;22004;49.120;-0.200;2023-05-08T00:32:52;102078.47;;;14.58;77.87
35910;BME280;22004;49.120;-0.200;2023-05-08T00:35:17;102069.69;;;14.56;77.88
35910;BME280;22004;49.120;-0.200;2023-05-08T00:37:43;102070.53;;;14.56;77.72
35910;BME280;22004;49.120;-0.200;2023-05-08T00:40:09;102067.00;;;14.56;78.11
35910;BME280;22004;49.120;-0.200;2023-05-08T00:42:35;102062.59;;;14.55;78.06
35910;BME280;22004;49.120;-0.200;2023-05-08T00:45:01;102062.59;;;14.55;77.96
35910;BME280;22004;49.120;-0.200;2023-05-08T00:47:28;102066.16;;;14.47;78.11
35910;BME280;22004;49.120;-0.200;2023-05-08T00:49:54;102055.34;;;14.55;77.89
35910;BME280;22004;49.120;-0.200;2023-05-08T00:52:19;102052.44;;;14.57;77.92
35910;BME280;22004;49.120;-0.200;2023-05-08T00:54:45;102048.81;;;14.33;78.06
35910;BME280;22004;49.120;-0.200;2023-05-08T00:57:13;102050.50;;;14.34;78.70
35910;BME280;22004;49.120;-0.200;2023-05-08T00:59:39;102044.94;;;14.28;78.75
35910;BME280;22004;49.120;-0.200;2023-05-08T01:02:06;102043.94;;;14.29;78.58
35910;BME280;22004;49.120;-0.200;2023-05-08T01:04:33;102042.91;;;14.30;78.51
35910;BME280;22004;49.120;-0.200;2023-05-08T01:07:00;102042.78;;;14.07;79.28
35910;BME280;22004;49.120;-0.200;2023-05-08T01:09:26;102028.84;;;13.79;79.35
35910;BME280;22004;49.120;-0.200;2023-05-08T01:12:02;102035.63;;;14.30;78.92
35910;BME280;22004;49.120;-0.200;2023-05-08T01:17:23;102033.97;;;14.29;78.75
35910;BME280;22004;49.120;-0.200;2023-05-08T01:33:32;102028.03;;;14.34;78.60
35910;BME280;22004;49.120;-0.200;2023-05-08T01:36:09;102030.75;;;14.26;78.90
35910;BME280;22004;49.120;-0.200;2023-05-08T01:38:44;102028.53;;;14.37;78.39
35910;BME280;22004;49.120;-0.200;2023-05-08T01:41:18;102032.75;;;14.32;78.59
35910;BME280;22004;49.120;-0.200;2023-05-08T01:46:24;102030.63;;;14.19;79.01
35910;BME280;22004;49.120;-0.200;2023-05-08T01:51:24;102028.06;;;14.26;78.68
35910;BME280;22004;49.120;-0.200;2023-05-08T01:53:55;102033.97;;;14.29;78.28
35910;BME280;22004;49.120;-0.200;2023-05-08T01:56:23;102033.44;;;14.26;78.74
35910;BME280;22004;49.120;-0.200;2023-05-08T01:58:53;102030.91;;;14.32;78.42
35910;BME280;22004;49.120;-0.200;2023-05-08T02:01:23;102033.25;;;14.43;78.10
35910;BME280;22004;49.120;-0.200;2023-05-08T02:03:50;102035.63;;;14.30;78.30
35910;BME280;22004;49.120;-0.200;2023-05-08T02:06:19;102032.28;;;14.20;78.73
35910;BME280;22004;49.120;-0.200;2023-05-08T02:08:46;102036.97;;;14.34;78.35
35910;BME280;22004;49.120;-0.200;2023-05-08T02:11:13;102028.38;;;14.31;78.51
35910;BME280;22004;49.120;-0.200;2023-05-08T02:13:39;102034.47;;;14.33;78.55
35910;BME280;22004;49.120;-0.200;2023-05-08T02:16:07;102033.13;;;14.20;78.94
35910;BME280;22004;49.120;-0.200;2023-05-08T02:18:34;102034.47;;;14.25;78.88
35910;BME280;22004;49.120;-0.200;2023-05-08T02:21:04;102034.09;;;14.36;78.47
35910;BME280;22004;49.120;-0.200;2023-05-08T02:23:32;102030.22;;;14.30;78.56
35910;BME280;22004;49.120;-0.200;2023-05-08T02:25:59;102040.19;;;14.30;78.57
35910;BME280;22004;49.120;-0.200;2023-05-08T02:28:26;102034.78;;;14.30;78.65
35910;BME280;22004;49.120;-0.200;2023-05-08T02:30:53;102031.59;;;14.26;78.70
35910;BME280;22004;49.120;-0.200;2023-05-08T02:33:21;102034.63;;;14.31;78.84
35910;BME280;22004;49.120;-0.200;2023-05-08T02:35:48;102033.44;;;14.34;78.54
35910;BME280;22004;49.120;-0.200;2023-05-08T02:38:16;102030.75;;;14.34;78.47
35910;BME280;22004;49.120;-0.200;2023-05-08T02:40:47;102026.38;;;14.16;78.52
35910;BME280;22004;49.120;-0.200;2023-05-08T02:43:13;102025.66;;;14.31;78.44
35910;BME280;22004;49.120;-0.200;2023-05-08T02:45:44;102027.91;;;14.27;78.14
35910;BME280;22004;49.120;-0.200;2023-05-08T02:48:19;102030.47;;;14.12;79.24
35910;BME280;22004;49.120;-0.200;2023-05-08T02:51:03;102020.44;;;14.29;78.73
35910;BME280;22004;49.120;-0.200;2023-05-08T02:53:36;102029.41;;;14.30;78.67
35910;BME280;22004;49.120;-0.200;2023-05-08T02:56:10;102018.94;;;14.27;78.58
35910;BME280;22004;49.120;-0.200;2023-05-08T03:01:13;102018.19;;;13.93;79.89
35910;BME280;22004;49.120;-0.200;2023-05-08T03:03:43;102019.22;;;13.92;79.99
35910;BME280;22004;49.120;-0.200;2023-05-08T03:06:15;102019.47;;;14.14;78.88
35910;BME280;22004;49.120;-0.200;2023-05-08T03:08:41;102032.44;;;14.27;78.75
35910;BME280;22004;49.120;-0.200;2023-05-08T03:11:15;102028.56;;;14.29;78.86
35910;BME280;22004;49.120;-0.200;2023-05-08T03:13:43;102023.66;;;14.33;78.53
35910;BME280;22004;49.120;-0.200;2023-05-08T03:16:17;102029.06;;;14.25;78.87
35910;BME280;22004;49.120;-0.200;2023-05-08T03:18:49;102024.31;;;14.27;78.61
35910;BME280;22004;49.120;-0.200;2023-05-08T03:21:19;102021.47;;;14.28;78.68
35910;BME280;22004;49.120;-0.200;2023-05-08T03:23:48;102031.44;;;14.28;78.54
35910;BME280;22004;49.120;-0.200;2023-05-08T03:26:18;102018.41;;;14.31;78.43
35910;BME280;22004;49.120;-0.200;2023-05-08T03:28:46;102016.72;;;14.30;78.55
35910;BME280;22004;49.120;-0.200;2023-05-08T03:31:14;102015.22;;;14.28;78.62
35910;BME280;22004;49.120;-0.200;2023-05-08T03:33:43;102008.81;;;14.29;78.61
35910;BME280;22004;49.120;-0.200;2023-05-08T03:36:09;102020.44;;;14.29;78.59
35910;BME280;22004;49.120;-0.200;2023-05-08T03:38:35;102026.06;;;14.19;79.01
35910;BME280;22004;49.120;-0.200;2023-05-08T03:41:00;102019.44;;;14.22;78.94
35910;BME280;22004;49.120;-0.200;2023-05-08T03:43:26;102016.97;;;14.12;79.13
35910;BME280;22004;49.120;-0.200;2023-05-08T03:45:52;102015.09;;;14.13;79.17
35910;BME280;22004;49.120;-0.200;2023-05-08T03:48:19;102011.41;;;14.06;79.59
35910;BME280;22004;49.120;-0.200;2023-05-08T03:50:47;102001.47;;;13.98;79.54
35910;BME280;22004;49.120;-0.200;2023-05-08T03:53:13;102006.69;;;14.00;79.39
35910;BME280;22004;49.120;-0.200;2023-05-08T03:55:38;102000.31;;;13.92;79.83
35910;BME280;22004;49.120;-0.200;2023-05-08T03:58:39;101999.81;;;13.89;79.89
35910;BME280;22004;49.120;-0.200;2023-05-08T04:01:14;101999.28;;;13.77;80.00
35910;BME280;22004;49.120;-0.200;2023-05-08T04:03:52;101998.97;;;13.72;80.18
35910;BME280;22004;49.120;-0.200;2023-05-08T04:06:27;102004.91;;;13.67;80.15
35910;BME280;22004;49.120;-0.200;2023-05-08T04:09:01;102003.03;;;13.68;80.34
35910;BME280;22004;49.120;-0.200;2023-05-08T04:11:40;101995.78;;;13.68;79.94
35910;BME280;22004;49.120;-0.200;2023-05-08T04:14:07;101996.94;;;13.66;80.19
35910;BME280;22004;49.120;-0.200;2023-05-08T04:16:38;101996.28;;;13.64;80.37
35910;BME280;22004;49.120;-0.200;2023-05-08T04:19:08;101999.13;;;13.62;80.32
35910;BME280;22004;49.120;-0.200;2023-05-08T04:21:35;101998.47;;;13.60;80.31
35910;BME280;22004;49.120;-0.200;2023-05-08T04:24:03;101992.91;;;13.62;80.21
35910;BME280;22004;49.120;-0.200;2023-05-08T04:26:32;101992.91;;;13.62;80.13
35910;BME280;22004;49.120;-0.200;2023-05-08T04:28:57;101990.03;;;13.80;79.73
35910;BME280;22004;49.120;-0.200;2023-05-08T04:31:23;101979.56;;;13.77;80.03
35910;BME280;22004;49.120;-0.200;2023-05-08T04:33:50;101985.31;;;13.65;79.99
35910;BME280;22004;49.120;-0.200;2023-05-08T04:36:16;101993.41;;;13.65;80.15
35910;BME280;22004;49.120;-0.200;2023-05-08T04:38:42;101985.66;;;13.79;79.48
35910;BME280;22004;49.120;-0.200;2023-05-08T04:41:07;101989.38;;;13.69;80.14
35910;BME280;22004;49.120;-0.200;2023-05-08T04:43:34;101991.06;;;13.46;79.66
35910;BME280;22004;49.120;-0.200;2023-05-08T04:46:00;101980.94;;;13.73;79.79
35910;BME280;22004;49.120;-0.200;2023-05-08T04:48:26;101987.66;;;13.77;79.51
35910;BME280;22004;49.120;-0.200;2023-05-08T04:50:51;101988.50;;;13.77;79.54
35910;BME280;22004;49.120;-0.200;2023-05-08T04:53:16;101989.34;;;13.86;79.67
35910;BME280;22004;49.120;-0.200;2023-05-08T04:55:42;101984.78;;;13.86;79.27
35910;BME280;22004;49.120;-0.200;2023-05-08T04:58:09;101989.38;;;13.61;78.92
35910;BME280;22004;49.120;-0.200;2023-05-08T05:00:35;101990.34;;;13.93;78.92
35910;BME280;22004;49.120;-0.200;2023-05-08T05:03:00;101994.22;;;13.82;79.25
35910;BME280;22004;49.120;-0.200;2023-05-08T05:05:25;101990.53;;;13.83;79.21
35910;BME280;22004;49.120;-0.200;2023-05-08T05:07:51;101992.72;;;13.88;79.12
35910;BME280;22004;49.120;-0.200;2023-05-08T05:10:17;101999.28;;;13.85;79.14
35910;BME280;22004;49.120;-0.200;2023-05-08T05:12:42;102001.28;;;13.91;78.78
35910;BME280;22004;49.120;-0.200;2023-05-08T05:15:08;102003.34;;;13.89;78.96
35910;BME280;22004;49.120;-0.200;2023-05-08T05:17:34;102001.63;;;13.96;78.45
35910;BME280;22004;49.120;-0.200;2023-05-08T05:19:59;102004.84;;;14.00;78.28
35910;BME280;22004;49.120;-0.200;2023-05-08T05:22:24;102005.84;;;13.91;78.49
35910;BME280;22004;49.120;-0.200;2023-05-08T05:24:50;102011.94;;;13.93;78.35
35910;BME280;22004;49.120;-0.200;2023-05-08T05:27:15;102014.28;;;13.96;78.33
35910;BME280;22004;49.120;-0.200;2023-05-08T05:29:41;102010.41;;;13.99;78.25
35910;BME280;22004;49.120;-0.200;2023-05-08T05:32:07;102012.75;;;14.02;78.11
35910;BME280;22004;49.120;-0.200;2023-05-08T05:34:34;102014.50;;;13.78;76.59
35910;BME280;22004;49.120;-0.200;2023-05-08T05:37:00;102007.53;;;13.92;78.25
35910;BME280;22004;49.120;-0.200;2023-05-08T05:39:25;102012.75;;;14.02;78.06
35910;BME280;22004;49.120;-0.200;2023-05-08T05:41:50;102005.00;;;13.99;78.11
35910;BME280;22004;49.120;-0.200;2023-05-08T05:44:16;102011.13;;;13.68;79.31
35910;BME280;22004;49.120;-0.200;2023-05-08T05:46:42;102009.72;;;13.15;79.35
35910;BME280;22004;49.120;-0.200;2023-05-08T05:49:07;102015.16;;;13.31;80.73
35910;BME280;22004;49.120;-0.200;2023-05-08T05:51:32;102014.50;;;13.78;79.18
35910;BME280;22004;49.120;-0.200;2023-05-08T05:53:58;102014.50;;;13.70;78.49
35910;BME280;22004;49.120;-0.200;2023-05-08T05:56:23;102015.16;;;13.80;78.55
35910;BME280;22004;49.120;-0.200;2023-05-08T05:58:49;102016.78;;;14.06;77.83
35910;BME280;22004;49.120;-0.200;2023-05-08T06:01:14;102016.09;;;14.12;77.65
35910;BME280;22004;49.120;-0.200;2023-05-08T06:03:40;102016.78;;;14.06;77.41
35910;BME280;22004;49.120;-0.200;2023-05-08T06:06:05;102023.03;;;14.14;77.46
35910;BME280;22004;49.120;-0.200;2023-05-08T06:08:30;102021.66;;;14.18;77.30
35910;BME280;22004;49.120;-0.200;2023-05-08T06:10:56;102029.78;;;14.10;76.87
35910;BME280;22004;49.120;-0.200;2023-05-08T06:13:21;102035.91;;;13.55;76.01
35910;BME280;22004;49.120;-0.200;2023-05-08T06:15:47;102037.78;;;13.79;78.95
35910;BME280;22004;49.120;-0.200;2023-05-08T06:18:14;102031.97;;;14.15;77.45
35910;BME280;22004;49.120;-0.200;2023-05-08T06:20:39;102040.84;;;14.40;76.66
35910;BME280;22004;49.120;-0.200;2023-05-08T06:23:05;102043.41;;;14.33;76.66
35910;BME280;22004;49.120;-0.200;2023-05-08T06:25:30;102034.72;;;13.66;77.89
35910;BME280;22004;49.120;-0.200;2023-05-08T06:27:56;102038.94;;;14.57;74.78
35910;BME280;22004;49.120;-0.200;2023-05-08T06:30:21;102045.22;;;15.19;72.08
35910;BME280;22004;49.120;-0.200;2023-05-08T06:32:47;102044.59;;;15.55;70.71
35910;BME280;22004;49.120;-0.200;2023-05-08T06:35:13;102046.75;;;15.68;70.27
35910;BME280;22004;49.120;-0.200;2023-05-08T06:37:42;102048.16;;;15.79;70.09
35910;BME280;22004;49.120;-0.200;2023-05-08T06:40:08;102047.94;;;17.13;66.45
35910;BME280;22004;49.120;-0.200;2023-05-08T06:42:34;102049.69;;;16.85;65.33
35910;BME280;22004;49.120;-0.200;2023-05-08T06:44:59;102039.97;;;16.75;66.31
35910;BME280;22004;49.120;-0.200;2023-05-08T06:47:25;102039.31;;;17.46;65.38
35910;BME280;22004;49.120;-0.200;2023-05-08T06:49:50;102044.22;;;17.36;65.46
35910;BME280;22004;49.120;-0.200;2023-05-08T06:52:18;102053.94;;;16.72;67.62
35910;BME280;22004;49.120;-0.200;2023-05-08T06:54:43;102062.06;;;16.28;68.36
35910;BME280;22004;49.120;-0.200;2023-05-08T06:57:08;102067.66;;;16.12;69.07
35910;BME280;22004;49.120;-0.200;2023-05-08T06:59:34;102058.50;;;16.13;69.89
35910;BME280;22004;49.120;-0.200;2023-05-08T07:01:59;102070.50;;;15.95;71.14
35910;BME280;22004;49.120;-0.200;2023-05-08T07:04:24;102066.03;;;15.88;70.73
35910;BME280;22004;49.120;-0.200;2023-05-08T07:06:50;102071.06;;;15.22;73.45
35910;BME280;22004;49.120;-0.200;2023-05-08T07:09:15;102077.69;;;14.88;74.50
35910;BME280;22004;49.120;-0.200;2023-05-08T07:11:41;102074.13;;;14.88;74.95
35910;BME280;22004;49.120;-0.200;2023-05-08T07:14:06;102076.72;;;15.12;74.60
35910;BME280;22004;49.120;-0.200;2023-05-08T07:16:32;102074.75;;;15.29;73.52
35910;BME280;22004;49.120;-0.200;2023-05-08T07:18:57;102070.19;;;15.52;72.52
35910;BME280;22004;49.120;-0.200;2023-05-08T07:21:23;102074.38;;;15.32;73.84
35910;BME280;22004;49.120;-0.200;2023-05-08T07:23:49;102072.03;;;14.67;76.41
35910;BME280;22004;49.120;-0.200;2023-05-08T07:26:16;102071.03;;;14.99;75.94
35910;BME280;22004;49.120;-0.200;2023-05-08T07:28:41;102074.78;;;15.21;75.11
35910;BME280;22004;49.120;-0.200;2023-05-08T07:31:06;102076.47;;;15.22;75.20
35910;BME280;22004;49.120;-0.200;2023-05-08T07:33:32;102077.84;;;15.41;76.22
35910;BME280;22004;49.120;-0.200;2023-05-08T07:35:58;102079.56;;;15.65;74.11
35910;BME280;22004;49.120;-0.200;2023-05-08T07:38:24;102076.19;;;15.63;74.25
35910;BME280;22004;49.120;-0.200;2023-05-08T07:40:49;102077.84;;;15.72;74.13
35910;BME280;22004;49.120;-0.200;2023-05-08T07:43:15;102074.47;;;15.70;73.79
35910;BME280;22004;49.120;-0.200;2023-05-08T07:45:41;102079.88;;;15.70;74.71
35910;BME280;22004;49.120;-0.200;2023-05-08T07:48:07;102072.00;;;15.06;76.08
35910;BME280;22004;49.120;-0.200;2023-05-08T07:50:33;102074.25;;;15.25;76.56
35910;BME280;22004;49.120;-0.200;2023-05-08T07:52:58;102077.69;;;15.42;77.03
35910;BME280;22004;49.120;-0.200;2023-05-08T07:55:23;102079.84;;;15.24;77.59
35910;BME280;22004;49.120;-0.200;2023-05-08T07:57:49;102078.38;;;15.13;78.07
35910;BME280;22004;49.120;-0.200;2023-05-08T08:00:14;102080.16;;;15.29;76.24
35910;BME280;22004;49.120;-0.200;2023-05-08T08:02:41;102076.19;;;15.40;75.28
35910;BME280;22004;49.120;-0.200;2023-05-08T08:05:07;102079.59;;;15.34;75.56
35910;BME280;22004;49.120;-0.200;2023-05-08T08:07:33;102075.94;;;15.27;75.48
35910;BME280;22004;49.120;-0.200;2023-05-08T08:09:59;102077.03;;;15.17;74.76
35910;BME280;22004;49.120;-0.200;2023-05-08T08:12:24;102070.84;;;15.32;74.98
35910;BME280;22004;49.120;-0.200;2023-05-08T08:14:49;102067.88;;;15.41;75.03
35910;BME280;22004;49.120;-0.200;2023-05-08T08:17:15;102071.66;;;15.55;74.46
35910;BME280;22004;49.120;-0.200;2023-05-08T08:19:40;102068.56;;;15.43;74.40
35910;BME280;22004;49.120;-0.200;2023-05-08T08:22:06;102067.03;;;15.41;76.32
35910;BME280;22004;49.120;-0.200;2023-05-08T08:24:31;102062.53;;;15.33;75.20
35910;BME280;22004;49.120;-0.200;2023-05-08T08:26:57;102062.09;;;15.44;75.22
35910;BME280;22004;49.120;-0.200;2023-05-08T08:29:22;102063.41;;;15.25;74.04
35910;BME280;22004;49.120;-0.200;2023-05-08T08:31:48;102057.03;;;15.41;74.46
35910;BME280;22004;49.120;-0.200;2023-05-08T08:34:13;102056.06;;;15.42;74.20
35910;BME280;22004;49.120;-0.200;2023-05-08T08:36:39;102060.84;;;15.55;74.94
35910;BME280;22004;49.120;-0.200;2023-05-08T08:39:04;102054.09;;;15.51;74.38
35910;BME280;22004;49.120;-0.200;2023-05-08T08:41:29;102055.22;;;15.42;74.47
35910;BME280;22004;49.120;-0.200;2023-05-08T08:43:55;102053.44;;;15.26;76.75
35910;BME280;22004;49.120;-0.200;2023-05-08T08:46:25;102045.50;;;15.24;73.92
35910;BME280;22004;49.120;-0.200;2023-05-08T08:48:53;102048.56;;;15.21;74.76
35910;BME280;22004;49.120;-0.200;2023-05-08T08:51:25;102045.38;;;15.41;74.80
35910;BME280;22004;49.120;-0.200;2023-05-08T08:54:02;102047.84;;;15.50;75.38
35910;BME280;22004;49.120;-0.200;2023-05-08T08:56:29;102049.91;;;15.48;74.93
35910;BME280;22004;49.120;-0.200;2023-05-08T08:58:56;102051.34;;;15.59;76.11
35910;BME280;22004;49.120;-0.200;2023-05-08T09:01:25;102050.69;;;15.34;74.77
35910;BME280;22004;49.120;-0.200;2023-05-08T09:03:55;102048.88;;;15.49;74.73
35910;BME280;22004;49.120;-0.200;2023-05-08T09:06:21;102041.78;;;15.48;75.08
35910;BME280;22004;49.120;-0.200;2023-05-08T09:08:46;102047.94;;;15.42;74.64
35910;BME280;22004;49.120;-0.200;2023-05-08T09:11:12;102044.78;;;15.31;74.02
35910;BME280;22004;49.120;-0.200;2023-05-08T09:13:37;102047.84;;;15.50;74.72
35910;BME280;22004;49.120;-0.200;2023-05-08T09:16:03;102050.63;;;15.42;75.13
35910;BME280;22004;49.120;-0.200;2023-05-08T09:18:28;102049.44;;;15.22;75.86
35910;BME280;22004;49.120;-0.200;2023-05-08T09:20:54;102057.78;;;15.35;75.40
35910;BME280;22004;49.120;-0.200;2023-05-08T09:23:20;102057.16;;;15.25;75.42
35910;BME280;22004;49.120;-0.200;2023-05-08T09:25:47;102054.47;;;15.48;75.45
35910;BME280;22004;49.120;-0.200;2023-05-08T09:28:20;102055.84;;;15.44;74.40
35910;BME280;22004;49.120;-0.200;2023-05-08T09:33:16;102063.59;;;15.24;74.05
35910;BME280;22004;49.120;-0.200;2023-05-08T09:35:41;102055.56;;;15.62;74.81
35910;BME280;22004;49.120;-0.200;2023-05-08T09:38:07;102053.19;;;15.67;73.98
35910;BME280;22004;49.120;-0.200;2023-05-08T09:40:32;102045.09;;;15.82;74.46
35910;BME280;22004;49.120;-0.200;2023-05-08T09:43:11;102044.13;;;16.12;72.54
35910;BME280;22004;49.120;-0.200;2023-05-08T09:45:38;102053.84;;;16.51;71.42
35910;BME280;22004;49.120;-0.200;2023-05-08T09:48:05;102046.84;;;16.57;71.26
35910;BME280;22004;49.120;-0.200;2023-05-08T09:50:31;102042.31;;;16.64;71.30
35910;BME280;22004;49.120;-0.200;2023-05-08T09:52:57;102035.22;;;16.63;72.35
35910;BME280;22004;49.120;-0.200;2023-05-08T09:55:23;102039.69;;;16.70;71.81
35910;BME280;22004;49.120;-0.200;2023-05-08T09:57:56;102034.28;;;16.55;71.67
35910;BME280;22004;49.120;-0.200;2023-05-08T10:00:23;102032.38;;;16.86;71.71
35910;BME280;22004;49.120;-0.200;2023-05-08T10:02:58;102027.06;;;17.35;70.94
35910;BME280;22004;49.120;-0.200;2023-05-08T10:05:27;102028.00;;;17.21;68.99
35910;BME280;22004;49.120;-0.200;2023-05-08T10:07:54;102024.41;;;17.20;69.27
35910;BME280;22004;49.120;-0.200;2023-05-08T10:12:56;102017.66;;;17.52;68.69
35910;BME280;22004;49.120;-0.200;2023-05-08T10:15:24;102004.22;;;17.72;68.88
35910;BME280;22004;49.120;-0.200;2023-05-08T10:20:19;102000.31;;;17.53;67.65
35910;BME280;22004;49.120;-0.200;2023-05-08T10:22:47;101986.47;;;17.48;70.28
35910;BME280;22004;49.120;-0.200;2023-05-08T10:25:16;101980.28;;;17.76;68.50
35910;BME280;22004;49.120;-0.200;2023-05-08T10:27:53;101972.22;;;17.68;67.00
35910;BME280;22004;49.120;-0.200;2023-05-08T10:30:23;101968.47;;;17.90;68.98
35910;BME280;22004;49.120;-0.200;2023-05-08T10:32:51;101974.78;;;18.04;65.48
35910;BME280;22004;49.120;-0.200;2023-05-08T10:35:20;101972.41;;;18.22;66.39
35910;BME280;22004;49.120;-0.200;2023-05-08T10:37:46;101957.72;;;18.17;66.75
35910;BME280;22004;49.120;-0.200;2023-05-08T10:40:12;101963.75;;;18.05;66.29
35910;BME280;22004;49.120;-0.200;2023-05-08T10:42:40;101961.84;;;18.54;65.48
35910;BME280;22004;49.120;-0.200;2023-05-08T10:45:06;101954.59;;;18.68;65.68
35910;BME280;22004;49.120;-0.200;2023-05-08T10:47:55;101952.63;;;18.42;64.93
35910;BME280;22004;49.120;-0.200;2023-05-08T10:53:28;101944.81;;;18.25;64.57
35910;BME280;22004;49.120;-0.200;2023-05-08T10:55:55;101947.50;;;17.84;67.26
35910;BME280;22004;49.120;-0.200;2023-05-08T10:58:32;101948.19;;;18.34;65.93
35910;BME280;22004;49.120;-0.200;2023-05-08T11:03:37;101938.19;;;18.41;64.02
35910;BME280;22004;49.120;-0.200;2023-05-08T11:06:03;101946.34;;;19.42;65.87
35910;BME280;22004;49.120;-0.200;2023-05-08T11:08:30;101936.84;;;18.72;64.30
35910;BME280;22004;49.120;-0.200;2023-05-08T11:11:04;101939.22;;;19.68;64.82
35910;BME280;22004;49.120;-0.200;2023-05-08T11:13:46;101936.28;;;19.89;63.63
35910;BME280;22004;49.120;-0.200;2023-05-08T11:16:12;101936.06;;;19.77;62.46
35910;BME280;22004;49.120;-0.200;2023-05-08T11:19:16;101937.13;;;19.17;62.63
35910;BME280;22004;49.120;-0.200;2023-05-08T11:24:47;101951.09;;;18.80;65.08
35910;BME280;22004;49.120;-0.200;2023-05-08T11:27:13;101948.69;;;18.57;65.67
35910;BME280;22004;49.120;-0.200;2023-05-08T11:29:39;101950.34;;;18.52;65.48
35910;BME280;22004;49.120;-0.200;2023-05-08T11:32:04;101956.47;;;18.60;64.80
35910;BME280;22004;49.120;-0.200;2023-05-08T11:37:08;101944.97;;;18.11;65.53
35910;BME280;22004;49.120;-0.200;2023-05-08T11:39:33;101949.72;;;18.02;67.56
35910;BME280;22004;49.120;-0.200;2023-05-08T11:45:08;101954.78;;;17.77;67.30
35910;BME280;22004;49.120;-0.200;2023-05-08T11:50:03;101961.25;;;17.26;69.78
35910;BME280;22004;49.120;-0.200;2023-05-08T11:52:33;101960.75;;;17.16;69.98
35910;BME280;22004;49.120;-0.200;2023-05-08T11:55:04;101969.53;;;16.97;70.79
35910;BME280;22004;49.120;-0.200;2023-05-08T11:57:30;101984.50;;;16.93;73.06
35910;BME280;22004;49.120;-0.200;2023-05-08T11:59:56;101978.13;;;16.86;70.35
35910;BME280;22004;49.120;-0.200;2023-05-08T12:02:39;101984.69;;;16.91;72.30
35910;BME280;22004;49.120;-0.200;2023-05-08T12:05:08;101979.28;;;16.91;71.84
35910;BME280;22004;49.120;-0.200;2023-05-08T12:07:44;101967.06;;;17.02;71.10
35910;BME280;22004;49.120;-0.200;2023-05-08T12:10:10;101973.13;;;17.25;70.92
35910;BME280;22004;49.120;-0.200;2023-05-08T12:12:39;101965.91;;;17.11;69.92
35910;BME280;22004;49.120;-0.200;2023-05-08T12:15:10;101965.31;;;16.94;69.29
35910;BME280;22004;49.120;-0.200;2023-05-08T12:17:35;101969.72;;;17.17;68.69
35910;BME280;22004;49.120;-0.200;2023-05-08T12:20:12;101973.72;;;17.21;68.59
35910;BME280;22004;49.120;-0.200;2023-05-08T12:22:43;101968.16;;;17.08;69.88
35910;BME280;22004;49.120;-0.200;2023-05-08T12:25:14;101972.59;;;17.15;68.31
35910;BME280;22004;49.120;-0.200;2023-05-08T12:27:40;101959.88;;;16.94;66.27
35910;BME280;22004;49.120;-0.200;2023-05-08T12:30:08;101961.50;;;16.89;68.52
35910;BME280;22004;49.120;-0.200;2023-05-08T12:32:39;101956.13;;;16.95;66.92
35910;BME280;22004;49.120;-0.200;2023-05-08T12:35:07;101957.75;;;16.90;69.76
35910;BME280;22004;49.120;-0.200;2023-05-08T12:37:33;101949.22;;;16.93;68.39
35910;BME280;22004;49.120;-0.200;2023-05-08T12:39:58;101950.97;;;17.00;68.32
35910;BME280;22004;49.120;-0.200;2023-05-08T12:45:08;101948.31;;;17.28;67.24
35910;BME280;22004;49.120;-0.200;2023-05-08T12:47:33;101953.19;;;17.12;68.80
35910;BME280;22004;49.120;-0.200;2023-05-08T12:49:59;101952.06;;;17.27;69.60
35910;BME280;22004;49.120;-0.200;2023-05-08T12:52:26;101950.09;;;17.43;68.76
35910;BME280;22004;49.120;-0.200;2023-05-08T12:54:52;101946.25;;;17.30;68.44
35910;BME280;22004;49.120;-0.200;2023-05-08T12:57:18;101943.59;;;17.37;68.63
35910;BME280;22004;49.120;-0.200;2023-05-08T12:59:45;101940.75;;;17.24;68.25
35910;BME280;22004;49.120;-0.200;2023-05-08T13:02:19;101941.56;;;16.96;68.25
35910;BME280;22004;49.120;-0.200;2023-05-08T13:04:54;101947.69;;;16.69;70.65
35910;BME280;22004;49.120;-0.200;2023-05-08T13:07:20;101945.47;;;16.58;71.60
35910;BME280;22004;49.120;-0.200;2023-05-08T13:09:59;101952.53;;;16.37;71.91
35910;BME280;22004;49.120;-0.200;2023-05-08T13:12:29;101955.06;;;16.39;72.00
35910;BME280;22004;49.120;-0.200;2023-05-08T13:14:54;101951.78;;;16.28;72.29
35910;BME280;22004;49.120;-0.200;2023-05-08T13:17:19;101945.75;;;16.26;72.86
35910;BME280;22004;49.120;-0.200;2023-05-08T13:19:45;101949.19;;;16.20;73.67
35910;BME280;22004;49.120;-0.200;2023-05-08T13:22:10;101957.44;;;16.12;72.88
35910;BME280;22004;49.120;-0.200;2023-05-08T13:24:35;101952.34;;;16.24;73.39
35910;BME280;22004;49.120;-0.200;2023-05-08T13:27:01;101959.56;;;16.32;74.59
35910;BME280;22004;49.120;-0.200;2023-05-08T13:29:27;101957.28;;;16.35;74.42
35910;BME280;22004;49.120;-0.200;2023-05-08T13:31:52;101958.34;;;16.70;72.88
35910;BME280;22004;49.120;-0.200;2023-05-08T13:34:18;101942.38;;;17.18;71.09